Time;durP1;ratioP1;P1;durP2;ratioP2;P2;SDS_P1;SDS_P2;PMS_P1;PMS_P2;Temp;Humidity;BMP_temperature;BMP_pressure;BME280_temperature;BME280_humidity;BME280_pressure;Samples;Min_cycle;Max_cycle;Signal;HPM_P1;HPM_P2
2021/10/26 00:01:15;;;;;;;6.50;3.33;;;18.70;60.50;;;;;;6223321;23;20193;-81
2021/10/26 00:03:41;;;;;;;6.00;3.70;;;18.80;60.60;;;;;;6223243;23;20203;-81
2021/10/26 00:06:07;;;;;;;7.93;3.78;;;18.80;60.70;;;;;;6249981;23;20679;-81
2021/10/26 00:08:32;;;;;;;4.78;3.70;;;18.70;60.70;;;;;;6249949;23;20145;-81
2021/10/26 00:10:58;;;;;;;7.55;3.50;;;18.70;60.70;;;;;;6222827;23;20476;-81
2021/10/26 00:13:24;;;;;;;4.65;3.13;;;18.70;60.70;;;;;;6249599;23;20587;-81
2021/10/26 00:15:51;;;;;;;4.32;3.33;;;18.70;60.80;;;;;;6250239;23;20148;-81
2021/10/26 00:18:17;;;;;;;4.22;3.40;;;18.70;60.90;;;;;;6222693;23;20161;-81
2021/10/26 00:20:43;;;;;;;5.38;3.65;;;18.80;61.00;;;;;;6249468;23;20149;-81
2021/10/26 00:23:08;;;;;;;5.40;3.83;;;18.70;60.90;;;;;;6250851;23;20227;-81
2021/10/26 00:25:34;;;;;;;7.43;3.67;;;18.70;60.90;;;;;;6249822;23;20129;-81
2021/10/26 00:28:00;;;;;;;4.28;3.30;;;18.70;60.90;;;;;;6222569;23;20134;-82
2021/10/26 00:30:25;;;;;;;4.03;3.03;;;18.70;60.90;;;;;;6249856;23;20154;-81
2021/10/26 00:32:52;;;;;;;4.57;3.20;;;18.70;60.90;;;;;;6249407;23;20511;-81
2021/10/26 00:35:20;;;;;;;5.57;3.47;;;18.70;60.90;;;;;;6222831;23;20134;-81
2021/10/26 00:37:45;;;;;;;5.15;3.15;;;18.70;61.00;;;;;;6222445;23;20177;-81
2021/10/26 00:40:13;;;;;;;5.50;3.60;;;18.70;60.90;;;;;;6222269;23;20144;-81
2021/10/26 00:42:39;;;;;;;7.45;3.42;;;18.70;61.00;;;;;;6249898;23;20137;-81
2021/10/26 00:45:05;;;;;;;6.78;3.90;;;18.60;61.10;;;;;;6249790;23;20191;-81
2021/10/26 00:47:31;;;;;;;5.10;3.40;;;18.60;61.20;;;;;;6222806;23;20164;-81
2021/10/26 00:49:56;;;;;;;6.63;4.03;;;18.60;61.20;;;;;;6249697;23;20137;-81
2021/10/26 00:52:23;;;;;;;6.05;3.20;;;18.60;61.20;;;;;;6222328;23;20441;-81
2021/10/26 00:54:48;;;;;;;7.25;3.35;;;18.60;61.20;;;;;;6249629;23;20175;-81
2021/10/26 00:57:17;;;;;;;5.85;3.30;;;18.60;61.20;;;;;;6222154;23;20165;-81
2021/10/26 00:59:43;;;;;;;6.43;3.58;;;18.60;61.20;;;;;;6223193;23;20186;-81
2021/10/26 01:02:08;;;;;;;6.18;3.58;;;18.60;61.30;;;;;;6249636;23;20212;-81
2021/10/26 01:04:34;;;;;;;5.95;3.60;;;18.60;61.30;;;;;;6248918;23;20473;-81
2021/10/26 01:07:00;;;;;;;4.00;3.28;;;18.60;61.40;;;;;;6222705;23;20141;-82
2021/10/26 01:09:26;;;;;;;7.97;3.78;;;18.60;61.40;;;;;;6223533;23;20209;-81
2021/10/26 01:11:52;;;;;;;6.22;3.53;;;18.60;61.40;;;;;;6252075;23;20134;-81
2021/10/26 01:14:17;;;;;;;6.63;3.53;;;18.60;61.40;;;;;;6251497;23;20157;-81
2021/10/26 01:16:43;;;;;;;4.90;3.58;;;18.50;61.40;;;;;;6251360;23;20177;-81
2021/10/26 01:19:09;;;;;;;5.38;3.72;;;18.50;61.50;;;;;;6251104;23;20187;-81
2021/10/26 01:21:35;;;;;;;5.10;3.70;;;18.50;61.60;;;;;;6224367;23;20133;-81
2021/10/26 01:24:01;;;;;;;4.90;3.13;;;18.50;61.60;;;;;;6224418;23;20186;-81
2021/10/26 01:26:26;;;;;;;4.22;3.30;;;18.50;61.60;;;;;;6224436;23;20216;-83
2021/10/26 01:28:52;;;;;;;4.72;3.60;;;18.50;61.60;;;;;;6199180;23;20148;-81
2021/10/26 01:31:18;;;;;;;4.45;3.50;;;18.60;61.60;;;;;;6224027;23;20130;-81
2021/10/26 01:33:44;;;;;;;5.30;3.70;;;18.50;61.50;;;;;;6251817;23;20229;-81
2021/10/26 01:36:09;;;;;;;5.57;3.80;;;18.50;61.50;;;;;;6251012;23;20129;-82
2021/10/26 01:38:35;;;;;;;4.13;3.33;;;18.50;61.60;;;;;;6224251;23;20165;-81
2021/10/26 01:41:01;;;;;;;4.63;3.58;;;18.60;61.50;;;;;;6224750;23;20580;-81
2021/10/26 01:43:27;;;;;;;5.95;3.55;;;18.60;61.40;;;;;;6250596;23;20252;-81
2021/10/26 01:45:54;;;;;;;7.10;3.50;;;18.50;61.60;;;;;;6251232;23;20217;-81
2021/10/26 01:48:20;;;;;;;5.00;3.45;;;18.50;61.70;;;;;;6251076;23;20213;-81
2021/10/26 01:50:45;;;;;;;6.22;3.60;;;18.50;61.60;;;;;;6250935;23;20468;-81
2021/10/26 01:53:11;;;;;;;6.38;3.67;;;18.50;61.60;;;;;;6224229;23;20130;-81
2021/10/26 01:55:37;;;;;;;6.82;3.30;;;18.60;61.70;;;;;;6223637;23;20129;-81
2021/10/26 01:58:04;;;;;;;5.03;3.50;;;18.50;61.80;;;;;;6251026;23;20171;-81
2021/10/26 02:00:29;;;;;;;4.78;3.40;;;18.50;61.70;;;;;;6224159;23;20144;-81
2021/10/26 02:02:55;;;;;;;4.75;3.70;;;18.50;61.70;;;;;;6250766;23;20161;-81
2021/10/26 02:05:20;;;;;;;5.70;3.50;;;18.50;61.70;;;;;;6250596;23;20520;-81
2021/10/26 02:07:46;;;;;;;6.10;3.63;;;18.50;61.70;;;;;;6250644;23;20468;-81
2021/10/26 02:10:12;;;;;;;5.63;3.70;;;18.50;61.90;;;;;;6250708;23;20136;-81
2021/10/26 02:12:38;;;;;;;6.53;3.88;;;18.50;61.90;;;;;;6224125;23;20220;-81
2021/10/26 02:15:05;;;;;;;4.50;3.40;;;18.50;62.00;;;;;;6250485;23;20140;-81
2021/10/26 02:17:31;;;;;;;6.72;3.67;;;18.50;61.80;;;;;;6223606;23;20567;-82
2021/10/26 02:19:56;;;;;;;5.20;3.47;;;18.50;62.10;;;;;;6250992;23;20137;-81
2021/10/26 02:22:22;;;;;;;4.00;3.60;;;18.50;62.00;;;;;;6223497;23;20153;-81
2021/10/26 02:24:49;;;;;;;5.47;3.78;;;18.50;61.90;;;;;;6223897;23;20141;-81
2021/10/26 02:27:15;;;;;;;6.20;3.92;;;18.50;62.10;;;;;;6250880;23;20569;-81
2021/10/26 02:29:40;;;;;;;6.35;3.78;;;18.50;62.10;;;;;;6223646;23;20138;-81
2021/10/26 02:32:06;;;;;;;6.47;3.78;;;18.40;62.00;;;;;;6251743;23;20457;-81
2021/10/26 02:34:32;;;;;;;9.98;4.05;;;18.40;62.10;;;;;;6250853;23;20134;-81
2021/10/26 02:36:58;;;;;;;4.13;3.42;;;18.40;62.30;;;;;;6250786;23;20157;-82
2021/10/26 02:39:24;;;;;;;6.60;3.50;;;18.40;62.20;;;;;;6223689;23;20138;-81
2021/10/26 02:41:49;;;;;;;8.27;3.95;;;18.50;62.30;;;;;;6250520;23;20142;-81
2021/10/26 02:44:16;;;;;;;3.60;3.13;;;18.40;62.10;;;;;;6250266;23;20129;-81
2021/10/26 02:46:42;;;;;;;5.70;3.80;;;18.40;61.90;;;;;;6198943;23;20562;-81
2021/10/26 02:49:07;;;;;;;6.93;3.95;;;18.40;62.10;;;;;;6250184;23;20137;-81
2021/10/26 02:51:33;;;;;;;6.22;3.75;;;18.40;62.20;;;;;;6223821;23;20133;-81
2021/10/26 02:54:00;;;;;;;6.03;3.75;;;18.40;62.30;;;;;;6250606;23;20134;-81
2021/10/26 02:56:26;;;;;;;7.78;4.00;;;18.40;62.00;;;;;;6250945;23;20129;-81
2021/10/26 02:58:52;;;;;;;7.07;4.10;;;18.40;61.90;;;;;;6250478;23;20588;-81
2021/10/26 03:01:18;;;;;;;5.63;3.90;;;18.40;61.70;;;;;;6223283;23;20130;-81
2021/10/26 03:03:44;;;;;;;7.85;3.80;;;18.50;62.00;;;;;;6250147;23;20162;-81
2021/10/26 03:06:09;;;;;;;6.00;4.10;;;18.50;61.70;;;;;;6223490;23;20189;-81
2021/10/26 03:08:35;;;;;;;5.03;3.90;;;18.50;61.70;;;;;;6250190;23;20171;-81
2021/10/26 03:11:02;;;;;;;5.93;3.65;;;18.40;61.60;;;;;;6223878;23;20173;-81
2021/10/26 03:13:27;;;;;;;4.50;3.70;;;18.50;61.50;;;;;;6250554;23;20221;-81
2021/10/26 03:15:54;;;;;;;5.88;3.70;;;18.50;60.80;;;;;;6250811;23;20175;-81
2021/10/26 03:18:20;;;;;;;5.80;3.90;;;18.60;60.90;;;;;;6250202;23;20173;-81
2021/10/26 03:20:45;;;;;;;4.93;4.07;;;18.60;60.40;;;;;;6249642;23;20141;-81
2021/10/26 03:23:11;;;;;;;7.70;4.28;;;18.70;60.40;;;;;;6249744;23;20187;-81
2021/10/26 03:25:36;;;;;;;4.55;3.85;;;18.60;60.70;;;;;;6249795;23;20130;-81
2021/10/26 03:28:02;;;;;;;4.75;3.88;;;18.70;60.50;;;;;;6249845;23;20199;-82
2021/10/26 03:30:28;;;;;;;6.22;3.88;;;18.70;60.10;;;;;;6250429;23;20133;-81
2021/10/26 03:32:54;;;;;;;5.85;4.00;;;18.70;60.10;;;;;;6222554;23;20201;-81
2021/10/26 03:35:19;;;;;;;4.90;4.18;;;18.70;60.30;;;;;;6250013;23;20140;-81
2021/10/26 03:37:45;;;;;;;5.93;4.00;;;18.70;60.00;;;;;;6197633;23;20212;-81
2021/10/26 03:40:13;;;;;;;5.35;3.90;;;18.80;60.10;;;;;;6250005;23;20129;-81
2021/10/26 03:42:38;;;;;;;5.95;3.90;;;18.80;59.90;;;;;;6250209;23;20137;-81
2021/10/26 03:45:05;;;;;;;5.40;3.70;;;18.80;59.80;;;;;;6250449;23;20130;-81
2021/10/26 03:47:31;;;;;;;5.32;4.00;;;18.90;60.00;;;;;;6250342;23;20137;-81
2021/10/26 03:49:56;;;;;;;5.78;4.13;;;18.80;59.80;;;;;;6249886;23;20460;-81
2021/10/26 03:52:22;;;;;;;6.43;3.80;;;18.90;59.80;;;;;;6250442;23;20461;-81
2021/10/26 03:54:49;;;;;;;6.15;4.20;;;18.80;59.80;;;;;;6250219;23;20514;-81
2021/10/26 03:57:15;;;;;;;4.30;3.90;;;18.90;59.60;;;;;;6222936;23;20175;-81
2021/10/26 03:59:41;;;;;;;6.25;4.00;;;18.90;59.80;;;;;;6250286;23;20138;-82
2021/10/26 04:02:09;;;;;;;5.68;4.00;;;18.90;59.70;;;;;;6222800;23;20129;-81
2021/10/26 04:04:36;;;;;;;5.15;4.10;;;18.90;59.60;;;;;;6217500;23;20273;-81
2021/10/26 04:07:04;;;;;;;5.47;3.97;;;18.90;59.60;;;;;;6192346;23;20150;-81
2021/10/26 04:09:43;;;;;;;5.22;3.80;;;18.90;59.40;;;;;;6192925;23;20142;-81
2021/10/26 04:12:25;;;;;;;5.38;3.83;;;18.90;59.40;;;;;;6194919;23;20145;-81
2021/10/26 04:14:54;;;;;;;5.15;3.92;;;18.90;59.50;;;;;;6219339;23;20268;-81
2021/10/26 04:17:22;;;;;;;6.70;3.92;;;19.00;59.30;;;;;;6219085;23;20173;-81
2021/10/26 04:19:48;;;;;;;4.70;3.83;;;19.00;59.20;;;;;;6217628;23;20514;-81
2021/10/26 04:22:15;;;;;;;6.07;4.10;;;19.00;59.20;;;;;;6217885;23;20134;-81
2021/10/26 04:24:41;;;;;;;4.93;4.07;;;19.00;59.20;;;;;;6217692;23;20218;-81
2021/10/26 04:27:07;;;;;;;4.68;3.83;;;19.00;59.30;;;;;;6218973;23;20134;-81
2021/10/26 04:29:33;;;;;;;5.93;3.72;;;19.00;59.30;;;;;;6218684;23;20130;-81
2021/10/26 04:31:58;;;;;;;5.75;3.83;;;19.00;59.20;;;;;;6217300;23;20217;-81
2021/10/26 04:34:24;;;;;;;7.10;3.92;;;19.00;59.40;;;;;;6219402;23;20134;-81
2021/10/26 04:36:50;;;;;;;5.18;4.10;;;19.00;59.20;;;;;;6220779;23;20192;-81
2021/10/26 04:39:15;;;;;;;4.43;3.88;;;19.00;59.20;;;;;;6218423;23;20442;-81
2021/10/26 04:41:41;;;;;;;5.30;3.85;;;19.00;59.30;;;;;;6215466;23;20185;-81
2021/10/26 04:44:07;;;;;;;4.40;4.00;;;19.00;59.00;;;;;;6216789;23;20204;-81
2021/10/26 04:46:33;;;;;;;4.82;3.70;;;18.90;58.90;;;;;;6216196;23;20656;-81
2021/10/26 04:49:00;;;;;;;5.25;4.18;;;19.00;58.90;;;;;;6216746;23;20521;-82
2021/10/26 04:51:25;;;;;;;5.85;4.05;;;19.00;59.00;;;;;;6214548;23;20146;-81
2021/10/26 04:53:51;;;;;;;6.10;4.10;;;19.00;59.10;;;;;;6214994;23;20188;-81
2021/10/26 04:56:16;;;;;;;5.15;4.18;;;19.00;58.90;;;;;;6215672;23;20467;-81
2021/10/26 04:58:42;;;;;;;4.70;3.83;;;19.00;58.70;;;;;;6217930;23;20174;-82
2021/10/26 05:01:08;;;;;;;4.50;3.92;;;19.10;58.70;;;;;;6215462;23;20157;-82
2021/10/26 05:03:33;;;;;;;6.65;4.28;;;19.10;58.90;;;;;;6189800;23;20154;-82
2021/10/26 05:05:59;;;;;;;4.88;3.92;;;19.10;58.40;;;;;;6212388;23;20185;-82
2021/10/26 05:08:25;;;;;;;4.88;3.95;;;19.10;58.50;;;;;;6212648;23;20142;-82
2021/10/26 05:10:53;;;;;;;5.25;4.03;;;19.10;58.60;;;;;;6213727;23;20457;-82
2021/10/26 05:13:18;;;;;;;5.13;4.20;;;19.10;58.70;;;;;;6213981;23;20138;-82
2021/10/26 05:15:45;;;;;;;5.13;4.10;;;19.00;58.60;;;;;;6216561;23;20160;-84
2021/10/26 05:18:13;;;;;;;6.05;4.47;;;19.10;58.60;;;;;;6217165;23;20173;-83
2021/10/26 05:20:40;;;;;;;4.90;3.80;;;19.10;58.60;;;;;;6216052;23;20131;-80
2021/10/26 05:23:07;;;;;;;5.50;4.10;;;19.10;58.50;;;;;;6216842;23;20213;-82
2021/10/26 05:25:33;;;;;;;5.65;4.25;;;19.10;58.60;;;;;;6217008;23;20126;-79
2021/10/26 05:27:59;;;;;;;6.10;4.30;;;19.10;59.30;;;;;;6213359;23;20135;-81
2021/10/26 05:30:24;;;;;;;6.20;3.95;;;19.10;58.40;;;;;;6214916;23;20161;-84
2021/10/26 05:32:50;;;;;;;5.10;4.03;;;19.10;58.40;;;;;;6215733;23;20466;-81
2021/10/26 05:35:16;;;;;;;4.57;4.15;;;19.10;58.20;;;;;;6215585;23;20138;-81
2021/10/26 05:37:42;;;;;;;4.88;4.07;;;19.10;58.50;;;;;;6213899;23;20173;-81
2021/10/26 05:40:08;;;;;;;5.07;4.05;;;19.10;58.20;;;;;;6214528;23;20146;-81
2021/10/26 05:42:34;;;;;;;5.22;3.97;;;19.10;58.40;;;;;;6216746;23;20137;-82
2021/10/26 05:45:01;;;;;;;5.93;4.40;;;19.20;58.30;;;;;;6215853;23;20551;-84
2021/10/26 05:47:28;;;;;;;5.28;4.30;;;19.20;58.30;;;;;;6218170;23;20245;-83
2021/10/26 05:49:54;;;;;;;4.95;3.90;;;19.20;58.20;;;;;;6217866;23;20135;-82
2021/10/26 05:52:20;;;;;;;4.88;4.00;;;19.20;58.30;;;;;;6217032;23;20133;-83
2021/10/26 05:54:46;;;;;;;5.03;3.88;;;19.20;58.40;;;;;;6217740;23;20134;-82
2021/10/26 05:57:12;;;;;;;5.55;4.05;;;19.20;58.40;;;;;;6217287;23;20170;-82
2021/10/26 05:59:39;;;;;;;4.70;4.20;;;19.20;58.40;;;;;;6217204;23;20177;-82
2021/10/26 06:02:04;;;;;;;4.70;3.90;;;19.20;58.50;;;;;;6217724;23;20130;-81
2021/10/26 06:04:30;;;;;;;4.65;4.18;;;19.20;58.30;;;;;;6223051;23;20551;-80
2021/10/26 06:06:57;;;;;;;5.35;4.05;;;19.20;58.20;;;;;;6248018;23;20183;-83
2021/10/26 06:09:23;;;;;;;6.25;4.32;;;19.20;58.40;;;;;;6222104;23;20137;-79
2021/10/26 06:11:51;;;;;;;5.47;4.07;;;19.20;58.20;;;;;;6222555;23;20149;-80
2021/10/26 06:14:18;;;;;;;5.22;4.10;;;19.20;58.20;;;;;;6248874;23;20130;-83
2021/10/26 06:16:44;;;;;;;7.22;4.70;;;19.20;58.30;;;;;;6248862;23;20161;-80
2021/10/26 06:19:11;;;;;;;5.47;4.20;;;19.30;58.00;;;;;;6249453;23;20208;-81
2021/10/26 06:21:37;;;;;;;4.60;4.10;;;19.20;58.30;;;;;;6198820;23;20137;-80
2021/10/26 06:24:03;;;;;;;5.22;3.78;;;19.20;58.60;;;;;;6250899;23;20209;-80
2021/10/26 06:26:29;;;;;;;4.68;3.88;;;19.20;57.90;;;;;;6250573;23;20161;-82
2021/10/26 06:28:56;;;;;;;4.68;4.00;;;19.20;57.80;;;;;;6224031;23;20137;-81
2021/10/26 06:31:22;;;;;;;5.57;4.20;;;19.30;58.10;;;;;;6248678;23;20530;-80
2021/10/26 06:33:48;;;;;;;4.97;4.30;;;19.30;58.10;;;;;;6250154;23;20136;-81
2021/10/26 06:36:14;;;;;;;5.43;4.22;;;19.30;57.80;;;;;;6252629;23;20131;-79
2021/10/26 06:38:39;;;;;;;5.75;4.13;;;19.30;57.80;;;;;;6227026;23;20185;-81
2021/10/26 06:41:05;;;;;;;5.05;4.38;;;19.30;58.10;;;;;;6252614;23;20442;-79
2021/10/26 06:43:32;;;;;;;5.13;3.88;;;19.30;57.20;;;;;;6226316;23;20129;-82
2021/10/26 06:45:59;;;;;;;4.28;3.88;;;19.30;57.20;;;;;;6225645;23;20133;-82
2021/10/26 06:48:26;;;;;;;5.70;4.25;;;19.30;57.30;;;;;;6251204;23;20161;-81
2021/10/26 06:50:52;;;;;;;4.68;4.00;;;19.30;57.50;;;;;;6247808;23;20129;-79
2021/10/26 06:53:19;;;;;;;4.72;4.28;;;19.30;57.40;;;;;;6247123;23;20216;-81
2021/10/26 06:55:46;;;;;;;5.63;4.35;;;19.30;58.00;;;;;;6221910;23;20161;-79
2021/10/26 06:58:12;;;;;;;4.90;3.97;;;19.30;57.80;;;;;;6249702;23;20169;-80
2021/10/26 07:00:38;;;;;;;7.68;4.43;;;19.40;57.80;;;;;;6220761;23;20504;-81
2021/10/26 07:03:04;;;;;;;5.30;4.05;;;19.30;57.70;;;;;;6221885;23;20137;-81
2021/10/26 07:05:30;;;;;;;5.03;4.13;;;19.40;57.80;;;;;;6249277;23;20216;-81
2021/10/26 07:07:55;;;;;;;4.55;4.00;;;19.40;57.90;;;;;;6198568;23;20157;-82
2021/10/26 07:10:21;;;;;;;4.63;4.00;;;19.40;57.90;;;;;;6224983;23;20180;-83
2021/10/26 07:12:47;;;;;;;6.35;4.20;;;19.30;58.20;;;;;;6252073;23;20153;-83
2021/10/26 07:15:14;;;;;;;4.65;4.07;;;19.30;57.70;;;;;;6252642;23;20130;-82
2021/10/26 07:17:41;;;;;;;6.18;4.07;;;19.30;58.00;;;;;;6224497;23;20637;-80
2021/10/26 07:20:08;;;;;;;4.72;4.07;;;19.40;58.00;;;;;;6225811;23;20453;-84
2021/10/26 07:22:35;;;;;;;5.05;4.07;;;19.30;58.10;;;;;;6251619;23;20306;-83
2021/10/26 07:25:05;;;;;;;4.93;4.03;;;19.30;58.00;;;;;;6225143;23;20137;-84
2021/10/26 07:27:31;;;;;;;5.35;4.00;;;19.30;58.10;;;;;;6222063;23;20144;-81
2021/10/26 07:29:57;;;;;;;6.15;4.25;;;19.30;57.80;;;;;;6222582;23;20137;-83
2021/10/26 07:32:23;;;;;;;5.75;4.03;;;19.30;58.00;;;;;;6221107;23;20207;-82
2021/10/26 07:34:49;;;;;;;5.43;4.03;;;19.30;58.00;;;;;;6247549;23;20157;-83
2021/10/26 07:37:15;;;;;;;4.35;3.95;;;19.40;58.10;;;;;;6247761;23;20241;-83
2021/10/26 07:39:47;;;;;;;4.70;4.00;;;19.40;57.90;;;;;;6195553;23;20232;-83
2021/10/26 07:42:15;;;;;;;5.88;4.22;;;19.40;57.60;;;;;;6221923;23;20152;-83
2021/10/26 07:44:42;;;;;;;5.68;4.28;;;19.40;57.60;;;;;;6248733;23;20137;-83
2021/10/26 07:47:08;;;;;;;4.97;4.00;;;19.40;57.30;;;;;;6222725;23;20138;-81
2021/10/26 07:49:33;;;;;;;5.68;4.55;;;19.40;57.40;;;;;;6248211;23;20157;-83
2021/10/26 07:51:59;;;;;;;5.43;4.53;;;19.40;57.50;;;;;;6195651;23;20184;-83
2021/10/26 07:54:26;;;;;;;4.65;4.10;;;19.40;57.60;;;;;;6196559;23;20454;-83
2021/10/26 07:56:52;;;;;;;5.28;4.10;;;19.30;57.90;;;;;;6220372;23;20240;-84
2021/10/26 07:59:18;;;;;;;4.90;3.90;;;19.40;57.70;;;;;;6246171;23;20604;-81
2021/10/26 08:01:45;;;;;;;4.88;4.22;;;19.40;57.50;;;;;;6220907;23;20168;-82
2021/10/26 08:04:11;;;;;;;5.07;4.07;;;19.50;57.60;;;;;;6197312;23;20137;-84
2021/10/26 08:06:40;;;;;;;5.00;4.40;;;19.50;57.50;;;;;;6223416;23;20145;-82
2021/10/26 08:09:05;;;;;;;5.93;4.28;;;19.50;57.30;;;;;;6228048;23;20149;-82
2021/10/26 08:11:34;;;;;;;4.43;4.03;;;19.50;57.60;;;;;;6252403;23;20133;-86
2021/10/26 08:14:00;;;;;;;4.03;3.63;;;19.50;57.50;;;;;;6247681;23;20584;-82
2021/10/26 08:16:26;;;;;;;4.85;4.00;;;19.50;57.40;;;;;;6246518;23;20126;-83
2021/10/26 08:18:52;;;;;;;4.50;3.88;;;19.50;57.10;;;;;;6246068;23;20193;-84
2021/10/26 08:21:18;;;;;;;4.50;4.10;;;19.50;57.30;;;;;;6219525;23;20207;-82
2021/10/26 08:23:44;;;;;;;4.43;3.85;;;19.50;57.30;;;;;;6219290;23;20138;-84
2021/10/26 08:26:16;;;;;;;6.57;4.30;;;19.50;57.30;;;;;;6195903;23;20217;-82
2021/10/26 08:28:42;;;;;;;5.00;3.80;;;19.50;57.20;;;;;;6224208;23;20130;-83
2021/10/26 08:31:18;;;;;;;5.28;4.15;;;19.40;57.40;;;;;;6248432;23;20164;-82
2021/10/26 08:36:28;;;;;;;5.75;3.92;;;19.50;57.40;;;;;;6247029;23;20137;-81
2021/10/26 08:38:54;;;;;;;4.72;4.22;;;19.50;57.40;;;;;;6247886;23;20176;-84
2021/10/26 08:41:21;;;;;;;5.40;4.28;;;19.50;57.50;;;;;;6224167;23;20148;-83
2021/10/26 08:43:47;;;;;;;5.15;4.40;;;19.50;57.40;;;;;;6221233;23;20217;-85
2021/10/26 08:46:13;;;;;;;6.28;3.90;;;19.60;57.40;;;;;;6197496;23;20137;-82
2021/10/26 08:48:40;;;;;;;4.25;3.70;;;19.60;57.80;;;;;;6221503;23;20137;-82
2021/10/26 08:51:06;;;;;;;4.60;3.85;;;19.60;57.60;;;;;;6247302;23;20160;-81
2021/10/26 08:53:32;;;;;;;5.88;4.15;;;19.60;57.80;;;;;;6220246;23;20138;-80
2021/10/26 08:55:59;;;;;;;5.45;4.20;;;19.50;57.70;;;;;;6248397;23;20430;-83
2021/10/26 08:58:27;;;;;;;5.57;4.18;;;19.60;57.40;;;;;;6219379;23;20165;-83
2021/10/26 09:00:55;;;;;;;6.03;4.20;;;19.50;57.50;;;;;;6218491;23;20145;-82
2021/10/26 09:03:24;;;;;;;4.20;3.70;;;19.60;57.60;;;;;;6196839;23;20133;-82
2021/10/26 09:05:50;;;;;;;4.43;3.58;;;19.60;57.30;;;;;;6247832;23;20274;-82
2021/10/26 09:08:19;;;;;;;4.95;4.00;;;19.60;57.30;;;;;;6221317;23;20138;-84
2021/10/26 09:10:45;;;;;;;3.95;3.55;;;19.60;57.40;;;;;;6220376;23;20137;-84
2021/10/26 09:18:39;;;;;;;5.85;4.00;;;19.60;57.40;;;;;;6222835;23;20168;-82
2021/10/26 09:21:05;;;;;;;4.20;3.80;;;19.70;57.60;;;;;;6248348;23;20137;-84
2021/10/26 09:23:31;;;;;;;4.75;3.85;;;19.60;57.60;;;;;;6238097;23;20129;-81
2021/10/26 09:25:58;;;;;;;4.38;3.60;;;19.60;57.80;;;;;;6209003;23;20149;-82
2021/10/26 09:28:26;;;;;;;5.78;3.80;;;19.60;57.90;;;;;;6225493;23;20193;-80
2021/10/26 09:31:02;;;;;;;4.95;4.05;;;19.60;57.90;;;;;;6225460;23;20129;-82
2021/10/26 09:33:31;;;;;;;4.00;3.58;;;19.60;57.80;;;;;;6250807;23;20137;-80
2021/10/26 09:36:24;;;;;;;3.90;3.42;;;19.60;57.70;;;;;;6199254;23;20567;-81
2021/10/26 09:39:10;;;;;;;4.20;3.70;;;19.60;57.50;;;;;;6204566;23;20169;-82
2021/10/26 09:41:58;;;;;;;5.68;4.22;;;19.60;57.60;;;;;;6231096;23;20599;-83
2021/10/26 09:44:25;;;;;;;5.10;3.70;;;19.70;57.40;;;;;;6232657;23;20136;-82
2021/10/26 09:46:53;;;;;;;5.53;3.85;;;19.70;57.20;;;;;;6228018;23;20133;-82
2021/10/26 09:49:29;;;;;;;4.45;3.95;;;19.70;56.90;;;;;;6222545;23;20134;-81
2021/10/26 09:52:06;;;;;;;5.53;4.25;;;19.60;57.20;;;;;;6227094;23;20163;-80
2021/10/26 09:54:31;;;;;;;4.40;3.92;;;19.60;57.20;;;;;;6253284;23;20133;-80
2021/10/26 09:57:06;;;;;;;4.45;3.67;;;19.60;57.40;;;;;;6224621;23;20165;-81
2021/10/26 09:59:33;;;;;;;4.40;3.97;;;19.70;57.40;;;;;;6256981;23;20187;-82
2021/10/26 10:01:58;;;;;;;4.45;3.65;;;19.60;57.60;;;;;;6227620;23;20129;-79
2021/10/26 10:04:26;;;;;;;4.70;3.90;;;19.60;57.50;;;;;;6253402;23;20144;-82
2021/10/26 10:06:53;;;;;;;6.93;4.25;;;19.70;57.40;;;;;;6229312;23;20168;-80
2021/10/26 10:09:21;;;;;;;4.30;3.80;;;19.60;57.40;;;;;;6252899;23;20234;-81
2021/10/26 10:12:05;;;;;;;4.70;3.90;;;19.60;57.40;;;;;;6250809;23;20168;-80
2021/10/26 10:14:34;;;;;;;5.65;4.00;;;19.70;57.30;;;;;;6226025;23;20569;-82
2021/10/26 10:17:02;;;;;;;4.57;3.88;;;19.60;57.60;;;;;;6223316;23;20253;-80
2021/10/26 10:19:27;;;;;;;5.88;3.90;;;19.70;57.40;;;;;;6252175;23;20125;-81
2021/10/26 10:21:54;;;;;;;4.20;3.80;;;19.70;57.30;;;;;;6224309;23;20147;-82
2021/10/26 10:24:20;;;;;;;4.55;3.80;;;19.70;57.40;;;;;;6223462;23;20141;-81
2021/10/26 10:26:51;;;;;;;4.22;3.55;;;19.60;57.50;;;;;;6222119;23;20608;-81
2021/10/26 10:29:20;;;;;;;4.53;3.90;;;19.60;57.60;;;;;;6248144;23;20213;-80
2021/10/26 10:31:47;;;;;;;4.78;4.03;;;19.60;57.50;;;;;;6221230;23;20501;-79
2021/10/26 10:34:13;;;;;;;5.25;4.15;;;19.60;57.70;;;;;;6221201;23;20129;-83
2021/10/26 10:36:40;;;;;;;5.00;3.95;;;19.60;57.60;;;;;;6221028;23;20136;-79
2021/10/26 10:39:07;;;;;;;4.25;3.80;;;19.60;57.70;;;;;;6221579;23;20133;-80
2021/10/26 10:41:34;;;;;;;4.88;3.95;;;19.60;57.10;;;;;;6222998;23;20140;-83
2021/10/26 10:44:01;;;;;;;4.50;3.60;;;19.70;57.20;;;;;;6222495;23;20439;-81
2021/10/26 10:46:45;;;;;;;4.80;3.50;;;19.60;57.50;;;;;;6222004;23;20164;-80
2021/10/26 10:49:41;;;;;;;4.72;3.83;;;19.60;57.50;;;;;;6221409;23;20561;-81
2021/10/26 10:52:11;;;;;;;4.65;3.80;;;19.60;57.40;;;;;;6247869;23;20138;-80
2021/10/26 10:54:54;;;;;;;5.68;3.92;;;19.60;57.10;;;;;;6248033;23;20141;-81
2021/10/26 10:57:34;;;;;;;6.20;4.00;;;19.60;57.40;;;;;;6247872;23;20224;-80
2021/10/26 11:00:34;;;;;;;5.50;3.90;;;19.50;57.50;;;;;;6221569;23;20134;-80
2021/10/26 11:03:00;;;;;;;5.72;4.00;;;19.50;57.80;;;;;;6250217;23;20203;-82
2021/10/26 11:05:42;;;;;;;4.70;3.85;;;19.50;57.60;;;;;;6248335;23;20659;-81
2021/10/26 11:08:09;;;;;;;5.18;3.90;;;19.50;57.60;;;;;;6221948;23;20137;-81
2021/10/26 11:11:00;;;;;;;5.55;4.13;;;19.50;57.60;;;;;;6221919;23;20138;-80
2021/10/26 11:13:28;;;;;;;5.05;3.70;;;19.50;57.50;;;;;;6227557;23;20184;-80
2021/10/26 11:15:59;;;;;;;4.30;3.80;;;19.40;57.60;;;;;;6224534;23;20619;-81
2021/10/26 11:18:45;;;;;;;4.95;3.58;;;19.50;57.50;;;;;;6224032;23;20191;-81
2021/10/26 11:21:41;;;;;;;4.97;3.92;;;19.50;57.70;;;;;;6223958;23;20456;-82
2021/10/26 11:24:08;;;;;;;4.68;3.90;;;19.50;57.40;;;;;;6221790;23;20453;-80
2021/10/26 11:26:42;;;;;;;6.07;3.75;;;19.50;57.60;;;;;;6248474;23;20126;-82
2021/10/26 11:29:09;;;;;;;5.82;3.95;;;19.50;57.40;;;;;;6221538;23;20216;-80
2021/10/26 11:31:46;;;;;;;4.38;3.67;;;19.50;57.60;;;;;;6248442;23;20145;-80
2021/10/26 11:34:24;;;;;;;4.68;3.80;;;19.50;57.90;;;;;;6247256;23;20125;-82
2021/10/26 11:37:06;;;;;;;4.13;3.70;;;19.50;56.90;;;;;;6247858;23;20567;-81
2021/10/26 11:39:32;;;;;;;3.90;3.50;;;19.50;57.70;;;;;;6222762;23;20600;-80
2021/10/26 11:41:59;;;;;;;4.07;3.67;;;19.50;58.50;;;;;;6220605;23;20165;-81
2021/10/26 11:44:25;;;;;;;4.38;3.38;;;19.50;57.70;;;;;;6220747;23;20166;-82
2021/10/26 11:46:51;;;;;;;5.05;3.95;;;19.40;57.70;;;;;;6245841;23;20132;-83
2021/10/26 11:49:20;;;;;;;4.88;3.90;;;19.50;57.90;;;;;;6245803;23;20134;-82
2021/10/26 11:51:49;;;;;;;5.63;3.50;;;19.50;57.70;;;;;;6244723;23;20164;-81
2021/10/26 11:54:19;;;;;;;4.35;3.85;;;19.50;57.70;;;;;;6245507;23;20148;-80
2021/10/26 11:57:01;;;;;;;3.85;3.40;;;19.50;57.40;;;;;;6219357;23;20190;-80
2021/10/26 11:59:34;;;;;;;4.20;3.80;;;19.50;57.70;;;;;;6246123;23;20126;-80
2021/10/26 12:02:10;;;;;;;4.03;3.63;;;19.50;57.60;;;;;;6221013;23;20187;-81
2021/10/26 12:04:39;;;;;;;4.35;3.80;;;19.50;57.80;;;;;;6252103;23;20199;-81
2021/10/26 12:07:10;;;;;;;4.65;3.53;;;19.50;57.70;;;;;;6248402;23;20191;-80
2021/10/26 12:09:47;;;;;;;4.55;3.80;;;19.60;57.70;;;;;;6247990;23;20145;-80
2021/10/26 12:12:21;;;;;;;5.13;4.13;;;19.50;57.60;;;;;;6221719;23;20161;-81
2021/10/26 12:14:53;;;;;;;4.00;3.50;;;19.50;57.40;;;;;;6219937;23;20148;-82
2021/10/26 12:17:22;;;;;;;4.18;3.63;;;19.50;57.60;;;;;;6220299;23;20165;-80
2021/10/26 12:20:17;;;;;;;3.67;3.20;;;19.50;57.70;;;;;;6222212;23;20197;-80
2021/10/26 12:22:45;;;;;;;4.85;3.85;;;19.50;57.80;;;;;;6249895;23;20583;-80
2021/10/26 12:25:32;;;;;;;4.18;3.50;;;19.50;57.90;;;;;;6222891;23;20129;-81
2021/10/26 12:27:59;;;;;;;5.05;3.95;;;19.50;57.60;;;;;;6248811;23;20148;-81
2021/10/26 12:30:30;;;;;;;3.92;3.33;;;19.50;57.90;;;;;;6246306;23;20137;-80
2021/10/26 12:33:03;;;;;;;4.53;3.90;;;19.50;57.70;;;;;;6219386;23;20469;-81
2021/10/26 12:35:44;;;;;;;3.72;3.38;;;19.50;57.30;;;;;;6219516;23;20201;-80
2021/10/26 12:38:36;;;;;;;3.53;3.10;;;19.50;57.60;;;;;;6246220;23;20173;-81
2021/10/26 12:41:06;;;;;;;4.75;3.70;;;19.50;57.20;;;;;;6225257;23;20136;-80
2021/10/26 12:43:32;;;;;;;5.03;3.67;;;19.50;57.80;;;;;;6250409;23;20133;-79
2021/10/26 12:46:00;;;;;;;5.10;3.85;;;19.50;57.40;;;;;;6201891;23;20195;-82
2021/10/26 12:48:33;;;;;;;4.10;3.55;;;19.50;57.70;;;;;;6246076;23;20133;-79
2021/10/26 12:51:00;;;;;;;4.55;3.35;;;19.50;57.40;;;;;;6201406;23;20675;-80
2021/10/26 12:53:38;;;;;;;4.10;3.70;;;19.50;57.80;;;;;;6250124;23;20133;-81
2021/10/26 12:56:16;;;;;;;4.75;3.63;;;19.50;57.70;;;;;;6252523;23;20168;-81
2021/10/26 12:58:44;;;;;;;3.58;3.28;;;19.50;57.80;;;;;;6201983;23;20181;-80
2021/10/26 13:01:29;;;;;;;4.15;3.53;;;19.40;57.70;;;;;;6228480;23;20208;-81